This is the latest recevied weather packets stored in our database for station/object AA8FM-13. If no packets are shown the sender has not sent any weather packets the latest 10 day(s).
| Time | Temp. | Humidity | Pressure | Rain* | Wind** | Luminosity | Snow |
|---|---|---|---|---|---|---|---|
| 1778000557 | 24.44° C | 50% | 1007.6 hPa | 0 mm | - | 672 W/m² | - |
| 1778000252 | 24.44° C | 50% | 1007.7 hPa | 0 mm | - | 678 W/m² | - |
| 1777999949 | 23.89° C | 47% | 1007.6 hPa | 0 mm | - | 646 W/m² | - |
| 1777999644 | 23.89° C | 48% | 1007.7 hPa | 0 mm | - | 678 W/m² | - |
| 1777999341 | 23.89° C | 49% | 1007.8 hPa | 0 mm | - | 666 W/m² | - |
| 1777999039 | 23.89° C | 48% | 1007.7 hPa | 0 mm | - | 667 W/m² | - |
| 1777998738 | 24.44° C | 47% | 1008.2 hPa | 0 mm | - | 379 W/m² | - |
| 1777998435 | 23.89° C | 48% | 1007.7 hPa | 0 mm | - | 654 W/m² | - |
| 1777998132 | 23.33° C | 46% | 1008 hPa | 0 mm | - | 649 W/m² | - |
| 1777997828 | 23.89° C | 47% | 1008 hPa | 0 mm | - | 645 W/m² | - |
| 1777997526 | 23.33° C | 49% | 1008.1 hPa | 0 mm | - | 665 W/m² | - |
| 1777997224 | 23.33° C | 49% | 1008 hPa | 0 mm | - | 624 W/m² | - |
| 1777996921 | 23.33° C | 48% | 1008 hPa | 0 mm | - | 629 W/m² | - |
| 1777996617 | 22.78° C | 52% | 1008.1 hPa | 0 mm | - | 669 W/m² | - |
| 1777996313 | 22.78° C | 50% | 1008.2 hPa | 0 mm | - | 599 W/m² | - |
| 1777996010 | 22.78° C | 50% | 1008.1 hPa | 0 mm | - | 593 W/m² | - |
| 1777995706 | 22.78° C | 52% | 1008.4 hPa | 0 mm | - | 593 W/m² | - |
| 1777995403 | 22.78° C | 50% | 1008.4 hPa | 0 mm | - | 571 W/m² | - |
| 1777995100 | 23.33° C | 50% | 1008.1 hPa | 0 mm | - | 584 W/m² | - |
| 1777994797 | 22.78° C | 53% | 1008.1 hPa | 0 mm | - | 598 W/m² | - |
| 1777994493 | 22.78° C | 52% | 1008.4 hPa | 0 mm | - | 575 W/m² | - |
| 1777994188 | 22.22° C | 53% | 1008.3 hPa | 0 mm | - | 575 W/m² | - |
| 1777993886 | 22.22° C | 52% | 1008.5 hPa | 0 mm | - | 584 W/m² | - |
| 1777993582 | 22.78° C | 54% | 1008.7 hPa | 0 mm | - | 576 W/m² | - |
| 1777993279 | 22.22° C | 52% | 1008.5 hPa | 0 mm | - | 577 W/m² | - |
* Rain latest hour (hover to see other rain measurements)
** Current wind speed in m/s (hover to see current wind gust speed)